sensor_id;sensor_type;location;lat;lon;timestamp;pressure;altitude;pressure_sealevel;temperature;humidity
64853;BME280;56050;55.558;-4.644;2023-04-22T00:01:44;101377.66;;;10.24;54.22
64853;BME280;56050;55.558;-4.644;2023-04-22T00:04:10;101369.94;;;10.22;54.49
64853;BME280;56050;55.558;-4.644;2023-04-22T00:06:35;101365.28;;;10.19;54.35
64853;BME280;56050;55.558;-4.644;2023-04-22T00:09:01;101365.66;;;10.18;54.58
64853;BME280;56050;55.558;-4.644;2023-04-22T00:11:26;101363.34;;;10.16;54.39
64853;BME280;56050;55.558;-4.644;2023-04-22T00:13:52;101365.25;;;10.16;54.54
64853;BME280;56050;55.558;-4.644;2023-04-22T00:16:17;101347.94;;;10.13;54.65
64853;BME280;56050;55.558;-4.644;2023-04-22T00:18:43;101360.91;;;10.11;54.85
64853;BME280;56050;55.558;-4.644;2023-04-22T00:21:09;101358.63;;;10.10;54.95
64853;BME280;56050;55.558;-4.644;2023-04-22T00:23:34;101354.75;;;10.07;55.09
64853;BME280;56050;55.558;-4.644;2023-04-22T00:26:00;101358.56;;;10.06;55.34
64853;BME280;56050;55.558;-4.644;2023-04-22T00:28:26;101343.91;;;10.03;55.42
64853;BME280;56050;55.558;-4.644;2023-04-22T00:30:51;101342.78;;;10.04;55.49
64853;BME280;56050;55.558;-4.644;2023-04-22T00:33:17;101341.22;;;10.03;55.65
64853;BME280;56050;55.558;-4.644;2023-04-22T00:35:43;101338.53;;;10.03;55.74
64853;BME280;56050;55.558;-4.644;2023-04-22T00:38:10;101331.25;;;10.04;56.13
64853;BME280;56050;55.558;-4.644;2023-04-22T00:40:35;101339.31;;;10.04;56.14
64853;BME280;56050;55.558;-4.644;2023-04-22T00:43:01;101325.06;;;10.03;56.34
64853;BME280;56050;55.558;-4.644;2023-04-22T00:45:27;101327.78;;;10.03;56.45
64853;BME280;56050;55.558;-4.644;2023-04-22T00:47:53;101313.91;;;10.01;56.59
64853;BME280;56050;55.558;-4.644;2023-04-22T00:50:18;101316.22;;;10.03;56.73
64853;BME280;56050;55.558;-4.644;2023-04-22T00:52:44;101302.00;;;10.02;56.68
64853;BME280;56050;55.558;-4.644;2023-04-22T00:55:10;101303.16;;;10.01;56.77
64853;BME280;56050;55.558;-4.644;2023-04-22T00:57:36;101297.75;;;10.01;56.69
64853;BME280;56050;55.558;-4.644;2023-04-22T01:00:04;101288.13;;;10.00;56.79
64853;BME280;56050;55.558;-4.644;2023-04-22T01:02:30;101287.72;;;9.98;56.80
64853;BME280;56050;55.558;-4.644;2023-04-22T01:04:55;101283.47;;;9.97;57.07
64853;BME280;56050;55.558;-4.644;2023-04-22T01:07:22;101280.00;;;9.97;56.96
64853;BME280;56050;55.558;-4.644;2023-04-22T01:09:47;101271.94;;;9.97;56.95
64853;BME280;56050;55.558;-4.644;2023-04-22T01:12:13;101268.84;;;9.95;56.83
64853;BME280;56050;55.558;-4.644;2023-04-22T01:14:38;101271.91;;;9.93;56.84
64853;BME280;56050;55.558;-4.644;2023-04-22T01:17:04;101269.56;;;9.92;56.88
64853;BME280;56050;55.558;-4.644;2023-04-22T01:19:30;101273.03;;;9.92;56.98
64853;BME280;56050;55.558;-4.644;2023-04-22T01:21:58;101276.88;;;9.91;56.89
64853;BME280;56050;55.558;-4.644;2023-04-22T01:24:26;101262.28;;;9.92;56.83
64853;BME280;56050;55.558;-4.644;2023-04-22T01:26:51;101269.56;;;9.92;56.79
64853;BME280;56050;55.558;-4.644;2023-04-22T01:29:17;101258.03;;;9.91;56.79
64853;BME280;56050;55.558;-4.644;2023-04-22T01:31:42;101256.13;;;9.92;56.50
64853;BME280;56050;55.558;-4.644;2023-04-22T01:34:08;101257.28;;;9.91;56.42
64853;BME280;56050;55.558;-4.644;2023-04-22T01:36:34;101249.22;;;9.91;56.28
64853;BME280;56050;55.558;-4.644;2023-04-22T01:38:59;101239.56;;;9.90;56.19
64853;BME280;56050;55.558;-4.644;2023-04-22T01:41:25;101236.50;;;9.88;56.12
64853;BME280;56050;55.558;-4.644;2023-04-22T01:43:56;101227.97;;;9.86;56.15
64853;BME280;56050;55.558;-4.644;2023-04-22T01:46:22;101216.47;;;9.85;56.11
64853;BME280;56050;55.558;-4.644;2023-04-22T01:48:47;101220.69;;;9.83;55.90
64853;BME280;56050;55.558;-4.644;2023-04-22T01:51:16;101218.72;;;9.80;55.98
64853;BME280;56050;55.558;-4.644;2023-04-22T01:53:42;101217.16;;;9.79;55.82
64853;BME280;56050;55.558;-4.644;2023-04-22T01:56:07;101213.69;;;9.78;55.80
64853;BME280;56050;55.558;-4.644;2023-04-22T01:58:33;101217.16;;;9.79;55.60
64853;BME280;56050;55.558;-4.644;2023-04-22T02:00:59;101212.56;;;9.79;55.69
64853;BME280;56050;55.558;-4.644;2023-04-22T02:03:25;101207.19;;;9.79;55.52
64853;BME280;56050;55.558;-4.644;2023-04-22T02:05:50;101207.19;;;9.79;55.25
64853;BME280;56050;55.558;-4.644;2023-04-22T02:08:16;101211.81;;;9.82;55.24
64853;BME280;56050;55.558;-4.644;2023-04-22T02:10:41;101201.84;;;9.83;55.26
64853;BME280;56050;55.558;-4.644;2023-04-22T02:13:07;101204.94;;;9.85;55.11
64853;BME280;56050;55.558;-4.644;2023-04-22T02:15:32;101200.69;;;9.84;54.96
64853;BME280;56050;55.558;-4.644;2023-04-22T02:17:58;101188.78;;;9.85;54.84
64853;BME280;56050;55.558;-4.644;2023-04-22T02:20:24;101193.00;;;9.86;54.77
64853;BME280;56050;55.558;-4.644;2023-04-22T02:22:49;101176.09;;;9.85;54.75
64853;BME280;56050;55.558;-4.644;2023-04-22T02:25:15;101186.09;;;9.85;54.62
64853;BME280;56050;55.558;-4.644;2023-04-22T02:27:40;101179.56;;;9.86;54.58
64853;BME280;56050;55.558;-4.644;2023-04-22T02:30:06;101168.78;;;9.86;54.52
64853;BME280;56050;55.558;-4.644;2023-04-22T02:32:32;101169.16;;;9.84;54.36
64853;BME280;56050;55.558;-4.644;2023-04-22T02:34:59;101168.03;;;9.85;54.27
64853;BME280;56050;55.558;-4.644;2023-04-22T02:37:26;101159.19;;;9.85;54.26
64853;BME280;56050;55.558;-4.644;2023-04-22T02:39:51;101158.78;;;9.83;54.19
64853;BME280;56050;55.558;-4.644;2023-04-22T02:42:16;101152.19;;;9.80;53.95
64853;BME280;56050;55.558;-4.644;2023-04-22T02:44:42;101143.72;;;9.78;54.17
64853;BME280;56050;55.558;-4.644;2023-04-22T02:47:08;101139.09;;;9.75;54.04
64853;BME280;56050;55.558;-4.644;2023-04-22T02:49:33;101128.31;;;9.72;53.92
64853;BME280;56050;55.558;-4.644;2023-04-22T02:51:58;101123.28;;;9.70;53.93
64853;BME280;56050;55.558;-4.644;2023-04-22T02:54:24;101118.66;;;9.67;53.65
64853;BME280;56050;55.558;-4.644;2023-04-22T02:56:49;101116.34;;;9.66;53.62
64853;BME280;56050;55.558;-4.644;2023-04-22T02:59:15;101112.09;;;9.65;53.59
64853;BME280;56050;55.558;-4.644;2023-04-22T03:01:40;101101.72;;;9.63;53.59
64853;BME280;56050;55.558;-4.644;2023-04-22T03:04:06;101092.47;;;9.64;53.42
64853;BME280;56050;55.558;-4.644;2023-04-22T03:06:31;101082.88;;;9.63;53.44
64853;BME280;56050;55.558;-4.644;2023-04-22T03:08:56;101090.97;;;9.63;53.18
64853;BME280;56050;55.558;-4.644;2023-04-22T03:11:22;101073.25;;;9.62;53.41
64853;BME280;56050;55.558;-4.644;2023-04-22T03:13:47;101074.41;;;9.61;53.22
64853;BME280;56050;55.558;-4.644;2023-04-22T03:16:13;101064.78;;;9.60;53.23
64853;BME280;56050;55.558;-4.644;2023-04-22T03:18:38;101071.34;;;9.63;53.17
64853;BME280;56050;55.558;-4.644;2023-04-22T03:21:04;101068.25;;;9.61;53.07
64853;BME280;56050;55.558;-4.644;2023-04-22T03:23:29;101064.78;;;9.60;52.90
64853;BME280;56050;55.558;-4.644;2023-04-22T03:25:55;101063.25;;;9.59;52.91
64853;BME280;56050;55.558;-4.644;2023-04-22T03:28:20;101051.69;;;9.59;52.78
64853;BME280;56050;55.558;-4.644;2023-04-22T03:30:46;101052.13;;;9.61;52.68
64853;BME280;56050;55.558;-4.644;2023-04-22T03:33:12;101063.25;;;9.59;52.73
64853;BME280;56050;55.558;-4.644;2023-04-22T03:35:38;101050.56;;;9.60;52.51
64853;BME280;56050;55.558;-4.644;2023-04-22T03:38:03;101043.63;;;9.59;52.44
64853;BME280;56050;55.558;-4.644;2023-04-22T03:40:28;101044.78;;;9.58;52.23
64853;BME280;56050;55.558;-4.644;2023-04-22T03:42:54;101039.78;;;9.56;52.25
64853;BME280;56050;55.558;-4.644;2023-04-22T03:45:20;101021.34;;;9.55;52.22
64853;BME280;56050;55.558;-4.644;2023-04-22T03:47:45;101017.47;;;9.56;52.06
64853;BME280;56050;55.558;-4.644;2023-04-22T03:50:11;101017.88;;;9.54;52.05
64853;BME280;56050;55.558;-4.644;2023-04-22T03:52:36;100999.41;;;9.53;51.73
64853;BME280;56050;55.558;-4.644;2023-04-22T03:55:02;100999.78;;;9.51;51.81
64853;BME280;56050;55.558;-4.644;2023-04-22T03:57:27;100989.41;;;9.50;51.33
64853;BME280;56050;55.558;-4.644;2023-04-22T03:59:52;100988.22;;;9.47;51.70
64853;BME280;56050;55.558;-4.644;2023-04-22T04:02:18;100987.03;;;9.44;51.59
64853;BME280;56050;55.558;-4.644;2023-04-22T04:04:43;100982.81;;;9.43;51.52
64853;BME280;56050;55.558;-4.644;2023-04-22T04:07:09;100978.56;;;9.42;51.57
64853;BME280;56050;55.558;-4.644;2023-04-22T04:09:34;100974.38;;;9.41;51.51
64853;BME280;56050;55.558;-4.644;2023-04-22T04:12:00;100976.63;;;9.39;51.08
64853;BME280;56050;55.558;-4.644;2023-04-22T04:14:25;100966.66;;;9.40;51.16
64853;BME280;56050;55.558;-4.644;2023-04-22T04:16:50;100973.59;;;9.41;50.95
64853;BME280;56050;55.558;-4.644;2023-04-22T04:19:16;100973.59;;;9.41;50.86
64853;BME280;56050;55.558;-4.644;2023-04-22T04:21:41;100963.59;;;9.41;50.44
64853;BME280;56050;55.558;-4.644;2023-04-22T04:24:07;100963.59;;;9.41;50.58
64853;BME280;56050;55.558;-4.644;2023-04-22T04:26:32;100959.41;;;9.44;50.33
64853;BME280;56050;55.558;-4.644;2023-04-22T04:28:58;100949.00;;;9.42;50.21
64853;BME280;56050;55.558;-4.644;2023-04-22T04:31:28;100947.88;;;9.43;49.61
64853;BME280;56050;55.558;-4.644;2023-04-22T04:33:54;100945.94;;;9.44;49.68
64853;BME280;56050;55.558;-4.644;2023-04-22T04:36:21;100938.25;;;9.42;49.58
64853;BME280;56050;55.558;-4.644;2023-04-22T04:38:50;100937.09;;;9.43;49.42
64853;BME280;56050;55.558;-4.644;2023-04-22T04:41:15;100933.25;;;9.44;49.15
64853;BME280;56050;55.558;-4.644;2023-04-22T04:43:41;100927.13;;;9.44;49.15
64853;BME280;56050;55.558;-4.644;2023-04-22T04:46:06;100927.53;;;9.46;48.94
64853;BME280;56050;55.558;-4.644;2023-04-22T04:48:32;100922.16;;;9.46;48.90
64853;BME280;56050;55.558;-4.644;2023-04-22T04:51:00;100910.59;;;9.45;48.66
64853;BME280;56050;55.558;-4.644;2023-04-22T04:53:25;100899.06;;;9.45;48.63
64853;BME280;56050;55.558;-4.644;2023-04-22T04:55:51;100892.19;;;9.44;48.36
64853;BME280;56050;55.558;-4.644;2023-04-22T04:58:16;100880.63;;;9.40;48.51
64853;BME280;56050;55.558;-4.644;2023-04-22T05:00:42;100872.94;;;9.38;48.37
64853;BME280;56050;55.558;-4.644;2023-04-22T05:03:07;100857.53;;;9.35;48.25
64853;BME280;56050;55.558;-4.644;2023-04-22T05:05:33;100869.03;;;9.32;48.25
64853;BME280;56050;55.558;-4.644;2023-04-22T05:07:58;100873.25;;;9.30;48.10
64853;BME280;56050;55.558;-4.644;2023-04-22T05:10:23;100872.09;;;9.27;48.25
64853;BME280;56050;55.558;-4.644;2023-04-22T05:12:49;100871.31;;;9.27;48.14
64853;BME280;56050;55.558;-4.644;2023-04-22T05:15:15;100874.78;;;9.27;48.29
64853;BME280;56050;55.558;-4.644;2023-04-22T05:17:41;100881.28;;;9.26;48.40
64853;BME280;56050;55.558;-4.644;2023-04-22T05:20:07;100892.81;;;9.27;48.20
64853;BME280;56050;55.558;-4.644;2023-04-22T05:22:34;100892.03;;;9.26;48.24
64853;BME280;56050;55.558;-4.644;2023-04-22T05:25:02;100885.53;;;9.27;48.11
64853;BME280;56050;55.558;-4.644;2023-04-22T05:27:27;100888.97;;;9.28;47.84
64853;BME280;56050;55.558;-4.644;2023-04-22T05:29:53;100860.16;;;9.28;47.83
64853;BME280;56050;55.558;-4.644;2023-04-22T05:32:18;100867.09;;;9.29;47.75
64853;BME280;56050;55.558;-4.644;2023-04-22T05:34:44;100857.50;;;9.32;47.45
64853;BME280;56050;55.558;-4.644;2023-04-22T05:37:09;100847.94;;;9.34;47.53
64853;BME280;56050;55.558;-4.644;2023-04-22T05:39:35;100832.97;;;9.37;47.12
64853;BME280;56050;55.558;-4.644;2023-04-22T05:42:00;100818.78;;;9.40;47.13
64853;BME280;56050;55.558;-4.644;2023-04-22T05:44:26;100818.81;;;9.43;46.87
64853;BME280;56050;55.558;-4.644;2023-04-22T05:46:52;100816.13;;;9.47;46.70
64853;BME280;56050;55.558;-4.644;2023-04-22T05:49:17;100806.94;;;9.52;46.59
64853;BME280;56050;55.558;-4.644;2023-04-22T05:51:43;100796.94;;;9.56;46.42
64853;BME280;56050;55.558;-4.644;2023-04-22T05:54:08;100809.66;;;9.59;46.15
64853;BME280;56050;55.558;-4.644;2023-04-22T05:56:33;100824.28;;;9.65;46.16
64853;BME280;56050;55.558;-4.644;2023-04-22T05:58:59;100822.41;;;9.69;46.17
64853;BME280;56050;55.558;-4.644;2023-04-22T06:01:24;100822.41;;;9.72;46.12
64853;BME280;56050;55.558;-4.644;2023-04-22T06:03:50;100832.41;;;9.75;46.13
64853;BME280;56050;55.558;-4.644;2023-04-22T06:06:15;100823.56;;;9.78;45.94
64853;BME280;56050;55.558;-4.644;2023-04-22T06:08:41;100827.44;;;9.81;45.90
64853;BME280;56050;55.558;-4.644;2023-04-22T06:11:06;100828.59;;;9.83;45.86
64853;BME280;56050;55.558;-4.644;2023-04-22T06:13:32;100806.72;;;9.85;45.86
64853;BME280;56050;55.558;-4.644;2023-04-22T06:15:57;100802.47;;;9.87;45.75
64853;BME280;56050;55.558;-4.644;2023-04-22T06:18:23;100797.88;;;9.88;45.41
64853;BME280;56050;55.558;-4.644;2023-04-22T06:20:48;100785.59;;;9.90;45.53
64853;BME280;56050;55.558;-4.644;2023-04-22T06:23:14;100783.66;;;9.91;45.29
64853;BME280;56050;55.558;-4.644;2023-04-22T06:25:39;100766.38;;;9.95;45.30
64853;BME280;56050;55.558;-4.644;2023-04-22T06:28:05;100752.16;;;9.98;45.39
64853;BME280;56050;55.558;-4.644;2023-04-22T06:30:30;100749.50;;;10.02;45.29
64853;BME280;56050;55.558;-4.644;2023-04-22T06:32:56;100746.78;;;10.05;45.15
64853;BME280;56050;55.558;-4.644;2023-04-22T06:35:21;100754.50;;;10.11;45.01
64853;BME280;56050;55.558;-4.644;2023-04-22T06:37:47;100746.44;;;10.14;44.80
64853;BME280;56050;55.558;-4.644;2023-04-22T06:40:13;100749.53;;;10.16;44.80
64853;BME280;56050;55.558;-4.644;2023-04-22T06:42:39;100748.38;;;10.21;44.70
64853;BME280;56050;55.558;-4.644;2023-04-22T06:45:05;100747.25;;;10.22;44.58
64853;BME280;56050;55.558;-4.644;2023-04-22T06:47:32;100734.16;;;10.24;44.67
64853;BME280;56050;55.558;-4.644;2023-04-22T06:49:57;100730.31;;;10.28;44.52
64853;BME280;56050;55.558;-4.644;2023-04-22T06:52:23;100718.00;;;10.31;44.56
64853;BME280;56050;55.558;-4.644;2023-04-22T06:54:48;100716.09;;;10.31;44.45
64853;BME280;56050;55.558;-4.644;2023-04-22T06:57:14;100710.34;;;10.33;44.31
64853;BME280;56050;55.558;-4.644;2023-04-22T06:59:39;100710.31;;;10.36;44.29
64853;BME280;56050;55.558;-4.644;2023-04-22T07:02:06;100709.94;;;10.38;43.82
64853;BME280;56050;55.558;-4.644;2023-04-22T07:04:31;100715.31;;;10.41;43.83
64853;BME280;56050;55.558;-4.644;2023-04-22T07:06:57;100716.88;;;10.42;43.80
64853;BME280;56050;55.558;-4.644;2023-04-22T07:09:22;100723.78;;;10.47;43.76
64853;BME280;56050;55.558;-4.644;2023-04-22T07:11:48;100716.84;;;10.49;43.75
64853;BME280;56050;55.558;-4.644;2023-04-22T07:14:13;100719.94;;;10.55;43.70
64853;BME280;56050;55.558;-4.644;2023-04-22T07:16:39;100723.41;;;10.59;43.67
64853;BME280;56050;55.558;-4.644;2023-04-22T07:19:04;100718.78;;;10.63;43.72
64853;BME280;56050;55.558;-4.644;2023-04-22T07:21:31;100722.25;;;10.67;43.66
64853;BME280;56050;55.558;-4.644;2023-04-22T07:23:57;100719.56;;;10.71;43.48
64853;BME280;56050;55.558;-4.644;2023-04-22T07:26:22;100728.38;;;10.75;43.39
64853;BME280;56050;55.558;-4.644;2023-04-22T07:28:48;100726.09;;;10.77;43.30
64853;BME280;56050;55.558;-4.644;2023-04-22T07:31:13;100723.78;;;10.79;43.20
64853;BME280;56050;55.558;-4.644;2023-04-22T07:33:39;100716.44;;;10.83;43.05
64853;BME280;56050;55.558;-4.644;2023-04-22T07:36:05;100719.53;;;10.85;42.93
64853;BME280;56050;55.558;-4.644;2023-04-22T07:38:30;100714.13;;;10.88;43.08
64853;BME280;56050;55.558;-4.644;2023-04-22T07:40:56;100718.75;;;10.91;42.91
64853;BME280;56050;55.558;-4.644;2023-04-22T07:43:21;100716.44;;;10.93;42.90
64853;BME280;56050;55.558;-4.644;2023-04-22T07:45:47;100715.63;;;10.96;42.81
64853;BME280;56050;55.558;-4.644;2023-04-22T07:48:12;100716.81;;;10.99;42.82
64853;BME280;56050;55.558;-4.644;2023-04-22T07:50:38;100715.63;;;11.00;42.56
64853;BME280;56050;55.558;-4.644;2023-04-22T07:53:04;100706.41;;;11.01;42.57
64853;BME280;56050;55.558;-4.644;2023-04-22T07:55:30;100708.69;;;11.02;42.59
64853;BME280;56050;55.558;-4.644;2023-04-22T07:57:55;100695.22;;;11.02;42.49
64853;BME280;56050;55.558;-4.644;2023-04-22T08:00:21;100689.84;;;11.06;42.30
64853;BME280;56050;55.558;-4.644;2023-04-22T08:02:46;100687.50;;;11.08;42.32
64853;BME280;56050;55.558;-4.644;2023-04-22T08:05:12;100685.59;;;11.12;42.24
64853;BME280;56050;55.558;-4.644;2023-04-22T08:07:37;100684.81;;;11.15;42.21
64853;BME280;56050;55.558;-4.644;2023-04-22T08:10:03;100675.94;;;11.18;42.29
64853;BME280;56050;55.558;-4.644;2023-04-22T08:12:29;100672.47;;;11.21;42.34
64853;BME280;56050;55.558;-4.644;2023-04-22T08:14:54;100669.34;;;11.26;42.18
64853;BME280;56050;55.558;-4.644;2023-04-22T08:17:22;100677.41;;;11.30;42.16
64853;BME280;56050;55.558;-4.644;2023-04-22T08:19:47;100682.44;;;11.31;42.05
64853;BME280;56050;55.558;-4.644;2023-04-22T08:22:14;100681.66;;;11.34;42.11
64853;BME280;56050;55.558;-4.644;2023-04-22T08:24:39;100675.47;;;11.34;41.81
64853;BME280;56050;55.558;-4.644;2023-04-22T08:27:05;100667.75;;;11.36;41.78
64853;BME280;56050;55.558;-4.644;2023-04-22T08:29:30;100656.19;;;11.39;41.77
64853;BME280;56050;55.558;-4.644;2023-04-22T08:31:56;100650.41;;;11.40;41.81
64853;BME280;56050;55.558;-4.644;2023-04-22T08:34:21;100648.47;;;11.44;41.88
64853;BME280;56050;55.558;-4.644;2023-04-22T08:36:46;100647.66;;;11.47;41.77
64853;BME280;56050;55.558;-4.644;2023-04-22T08:39:12;100643.03;;;11.51;41.85
64853;BME280;56050;55.558;-4.644;2023-04-22T08:41:37;100642.22;;;11.54;41.79
64853;BME280;56050;55.558;-4.644;2023-04-22T08:44:04;100641.06;;;11.59;41.93
64853;BME280;56050;55.558;-4.644;2023-04-22T08:46:29;100642.56;;;11.63;41.93
64853;BME280;56050;55.558;-4.644;2023-04-22T08:48:55;100636.38;;;11.66;41.78
64853;BME280;56050;55.558;-4.644;2023-04-22T08:51:27;100635.22;;;11.71;41.63
64853;BME280;56050;55.558;-4.644;2023-04-22T08:53:52;100631.72;;;11.74;41.42
64853;BME280;56050;55.558;-4.644;2023-04-22T08:56:18;100630.94;;;11.77;41.25
64853;BME280;56050;55.558;-4.644;2023-04-22T08:58:45;100622.06;;;11.80;41.10
64853;BME280;56050;55.558;-4.644;2023-04-22T09:01:11;100620.50;;;11.83;41.03
64853;BME280;56050;55.558;-4.644;2023-04-22T09:03:38;100608.13;;;11.85;40.92
64853;BME280;56050;55.558;-4.644;2023-04-22T09:06:05;100605.81;;;11.87;40.99
64853;BME280;56050;55.558;-4.644;2023-04-22T09:08:34;100597.69;;;11.91;40.89
64853;BME280;56050;55.558;-4.644;2023-04-22T09:10:59;100596.88;;;11.94;40.74
64853;BME280;56050;55.558;-4.644;2023-04-22T09:13:25;100584.53;;;11.96;40.83
64853;BME280;56050;55.558;-4.644;2023-04-22T09:15:51;100577.56;;;11.99;40.69
64853;BME280;56050;55.558;-4.644;2023-04-22T09:18:17;100576.38;;;12.03;40.64
64853;BME280;56050;55.558;-4.644;2023-04-22T09:20:45;100567.06;;;12.08;40.56
64853;BME280;56050;55.558;-4.644;2023-04-22T09:23:11;100551.19;;;12.17;40.68
64853;BME280;56050;55.558;-4.644;2023-04-22T09:25:37;100553.03;;;12.23;40.46
64853;BME280;56050;55.558;-4.644;2023-04-22T09:28:03;100553.75;;;12.31;40.39
64853;BME280;56050;55.558;-4.644;2023-04-22T09:30:34;100544.03;;;12.37;40.38
64853;BME280;56050;55.558;-4.644;2023-04-22T09:33:04;100534.69;;;12.45;40.36
64853;BME280;56050;55.558;-4.644;2023-04-22T09:35:38;100538.84;;;12.53;40.22
64853;BME280;56050;55.558;-4.644;2023-04-22T09:38:08;100534.88;;;12.61;40.27
64853;BME280;56050;55.558;-4.644;2023-04-22T09:40:35;100533.63;;;12.69;40.17
64853;BME280;56050;55.558;-4.644;2023-04-22T09:43:03;100536.22;;;12.76;40.21
64853;BME280;56050;55.558;-4.644;2023-04-22T09:48:12;100528.28;;;12.92;40.17
64853;BME280;56050;55.558;-4.644;2023-04-22T09:50:43;100523.63;;;12.96;39.89
64853;BME280;56050;55.558;-4.644;2023-04-22T09:53:11;100526.69;;;12.98;39.68
64853;BME280;56050;55.558;-4.644;2023-04-22T09:55:40;100515.06;;;13.02;39.56
64853;BME280;56050;55.558;-4.644;2023-04-22T09:58:09;100521.56;;;13.08;39.71
64853;BME280;56050;55.558;-4.644;2023-04-22T10:00:42;100512.66;;;13.11;39.69
64853;BME280;56050;55.558;-4.644;2023-04-22T10:03:08;100516.03;;;13.15;39.61
64853;BME280;56050;55.558;-4.644;2023-04-22T10:05:34;100507.13;;;13.18;39.72
64853;BME280;56050;55.558;-4.644;2023-04-22T10:08:04;100504.41;;;13.18;39.45
64853;BME280;56050;55.558;-4.644;2023-04-22T10:10:30;100503.66;;;13.17;39.33
64853;BME280;56050;55.558;-4.644;2023-04-22T10:12:55;100494.78;;;13.17;39.21
64853;BME280;56050;55.558;-4.644;2023-04-22T10:15:22;100494.78;;;13.17;39.31
64853;BME280;56050;55.558;-4.644;2023-04-22T10:17:49;100500.97;;;13.17;39.23
64853;BME280;56050;55.558;-4.644;2023-04-22T10:20:17;100493.19;;;13.19;39.33
64853;BME280;56050;55.558;-4.644;2023-04-22T10:22:44;100489.69;;;13.22;39.36
64853;BME280;56050;55.558;-4.644;2023-04-22T10:25:21;100493.13;;;13.23;39.32
64853;BME280;56050;55.558;-4.644;2023-04-22T10:28:07;100493.13;;;13.23;39.46
64853;BME280;56050;55.558;-4.644;2023-04-22T10:30:36;100494.28;;;13.25;39.54
64853;BME280;56050;55.558;-4.644;2023-04-22T10:38:41;100484.81;;;13.37;39.64
64853;BME280;56050;55.558;-4.644;2023-04-22T10:41:12;100483.97;;;13.40;39.74
64853;BME280;56050;55.558;-4.644;2023-04-22T10:43:42;100477.75;;;13.43;39.67
64853;BME280;56050;55.558;-4.644;2023-04-22T10:49:06;100484.69;;;13.44;40.34
64853;BME280;56050;55.558;-4.644;2023-04-22T10:51:46;100471.22;;;13.40;40.52
64853;BME280;56050;55.558;-4.644;2023-04-22T10:57:05;100475.16;;;13.36;40.59
64853;BME280;56050;55.558;-4.644;2023-04-22T10:59:33;100479.38;;;13.37;40.76
64853;BME280;56050;55.558;-4.644;2023-04-22T11:02:06;100470.44;;;13.40;40.79
64853;BME280;56050;55.558;-4.644;2023-04-22T11:04:32;100470.75;;;13.45;40.73
64853;BME280;56050;55.558;-4.644;2023-04-22T11:09:50;100466.00;;;13.53;40.59
64853;BME280;56050;55.558;-4.644;2023-04-22T11:15:12;100455.81;;;13.61;40.60
64853;BME280;56050;55.558;-4.644;2023-04-22T11:17:42;100454.22;;;13.63;40.57
64853;BME280;56050;55.558;-4.644;2023-04-22T11:20:09;100455.78;;;13.64;40.38
64853;BME280;56050;55.558;-4.644;2023-04-22T11:22:36;100439.16;;;13.62;40.34
64853;BME280;56050;55.558;-4.644;2023-04-22T11:25:03;100444.56;;;13.62;40.12
64853;BME280;56050;55.558;-4.644;2023-04-22T11:27:29;100441.53;;;13.60;39.88
64853;BME280;56050;55.558;-4.644;2023-04-22T11:32:30;100444.22;;;13.60;39.94
64853;BME280;56050;55.558;-4.644;2023-04-22T11:34:56;100443.06;;;13.61;39.92
64853;BME280;56050;55.558;-4.644;2023-04-22T11:37:22;100428.69;;;13.64;39.97
64853;BME280;56050;55.558;-4.644;2023-04-22T11:39:48;100430.56;;;13.67;40.17
64853;BME280;56050;55.558;-4.644;2023-04-22T11:42:19;100435.91;;;13.71;40.30
64853;BME280;56050;55.558;-4.644;2023-04-22T11:44:45;100429.28;;;13.75;40.27
64853;BME280;56050;55.558;-4.644;2023-04-22T11:47:11;100427.31;;;13.76;40.52
64853;BME280;56050;55.558;-4.644;2023-04-22T11:49:37;100438.56;;;13.74;40.84
64853;BME280;56050;55.558;-4.644;2023-04-22T11:52:03;100426.56;;;13.75;40.93
64853;BME280;56050;55.558;-4.644;2023-04-22T11:54:30;100427.19;;;13.83;41.10
64853;BME280;56050;55.558;-4.644;2023-04-22T11:56:55;100420.13;;;13.89;41.50
64853;BME280;56050;55.558;-4.644;2023-04-22T11:59:23;100421.22;;;13.91;41.83
64853;BME280;56050;55.558;-4.644;2023-04-22T12:01:50;100430.09;;;13.92;41.65
64853;BME280;56050;55.558;-4.644;2023-04-22T12:04:15;100421.56;;;13.93;41.93
64853;BME280;56050;55.558;-4.644;2023-04-22T12:06:41;100421.91;;;13.95;41.99
64853;BME280;56050;55.558;-4.644;2023-04-22T12:09:06;100426.56;;;13.95;42.03
64853;BME280;56050;55.558;-4.644;2023-04-22T12:11:32;100421.97;;;13.92;42.28
64853;BME280;56050;55.558;-4.644;2023-04-22T12:14:04;100428.25;;;13.89;42.35
64853;BME280;56050;55.558;-4.644;2023-04-22T12:16:41;100431.78;;;13.86;42.54
64853;BME280;56050;55.558;-4.644;2023-04-22T12:19:07;100427.59;;;13.81;42.79
64853;BME280;56050;55.558;-4.644;2023-04-22T12:21:33;100428.41;;;13.78;43.25
64853;BME280;56050;55.558;-4.644;2023-04-22T12:24:01;100426.19;;;13.73;43.27
64853;BME280;56050;55.558;-4.644;2023-04-22T12:26:30;100422.81;;;13.69;43.23
64853;BME280;56050;55.558;-4.644;2023-04-22T12:28:57;100424.78;;;13.65;43.43
64853;BME280;56050;55.558;-4.644;2023-04-22T12:31:23;100436.44;;;13.62;43.52
64853;BME280;56050;55.558;-4.644;2023-04-22T12:33:49;100427.97;;;13.60;43.56
64853;BME280;56050;55.558;-4.644;2023-04-22T12:36:15;100423.00;;;13.59;44.02
64853;BME280;56050;55.558;-4.644;2023-04-22T12:38:40;100423.00;;;13.59;43.85
64853;BME280;56050;55.558;-4.644;2023-04-22T12:41:07;100422.16;;;13.62;43.85
64853;BME280;56050;55.558;-4.644;2023-04-22T12:43:32;100418.63;;;13.65;44.32
64853;BME280;56050;55.558;-4.644;2023-04-22T12:46:01;100419.03;;;13.63;44.77
64853;BME280;56050;55.558;-4.644;2023-04-22T12:48:26;100416.81;;;13.58;45.06
64853;BME280;56050;55.558;-4.644;2023-04-22T12:50:52;100413.00;;;13.56;45.32
64853;BME280;56050;55.558;-4.644;2023-04-22T12:53:20;100414.16;;;13.54;45.33
64853;BME280;56050;55.558;-4.644;2023-04-22T12:55:45;100417.69;;;13.51;45.84
64853;BME280;56050;55.558;-4.644;2023-04-22T12:58:12;100409.63;;;13.48;45.98
64853;BME280;56050;55.558;-4.644;2023-04-22T13:00:38;100415.41;;;13.50;46.08
64853;BME280;56050;55.558;-4.644;2023-04-22T13:03:03;100408.88;;;13.47;46.26